Time;durP1;ratioP1;P1;durP2;ratioP2;P2;SDS_P1;SDS_P2;PMS_P1;PMS_P2;Temp;Humidity;BMP_temperature;BMP_pressure;BME280_temperature;BME280_humidity;BME280_pressure;Samples;Min_cycle;Max_cycle;Signal;HPM_P1;HPM_P2
2023/09/02 00:01:01;;;;;;;2.20;1.13;;;;;;;;;;5054008;28;20044;-59
2023/09/02 00:03:27;;;;;;;1.77;0.98;;;;;;;;;;5054286;28;20021;-59
2023/09/02 00:05:53;;;;;;;1.98;1.13;;;;;;;;;;5053036;28;20036;-59
2023/09/02 00:08:19;;;;;;;2.85;1.20;;;;;;;;;;5053859;28;20493;-59
2023/09/02 00:10:45;;;;;;;3.00;1.38;;;;;;;;;;5054250;28;20017;-59
2023/09/02 00:13:11;;;;;;;3.92;1.67;;;;;;;;;;5053894;28;20032;-59
2023/09/02 00:15:37;;;;;;;9.02;1.80;;;;;;;;;;5054307;28;20155;-59
2023/09/02 00:18:03;;;;;;;2.00;1.33;;;;;;;;;;5053471;28;20021;-59
2023/09/02 00:20:32;;;;;;;4.65;2.03;;;;;;;;;;5053815;28;20095;-59
2023/09/02 00:22:58;;;;;;;3.35;2.00;;;;;;;;;;5054011;28;20415;-59
2023/09/02 00:25:24;;;;;;;3.00;1.98;;;;;;;;;;5053880;28;20021;-59
2023/09/02 00:27:51;;;;;;;2.50;1.25;;;;;;;;;;5053622;28;20116;-59
2023/09/02 00:30:17;;;;;;;6.20;2.40;;;;;;;;;;5053671;28;20520;-59
2023/09/02 00:32:43;;;;;;;2.40;1.40;;;;;;;;;;5053536;28;20021;-59
2023/09/02 00:35:10;;;;;;;2.55;1.40;;;;;;;;;;5053879;28;20021;-59
2023/09/02 00:37:36;;;;;;;3.35;1.45;;;;;;;;;;5053538;28;20025;-59
2023/09/02 00:40:04;;;;;;;2.83;1.85;;;;;;;;;;5053489;28;20044;-59
2023/09/02 00:42:31;;;;;;;4.32;1.90;;;;;;;;;;5053718;28;20075;-59
2023/09/02 00:44:57;;;;;;;4.82;2.50;;;;;;;;;;5053798;28;20387;-59
2023/09/02 00:47:23;;;;;;;2.92;1.92;;;;;;;;;;5053829;28;20067;-59
2023/09/02 00:49:49;;;;;;;2.25;1.88;;;;;;;;;;5053986;28;20076;-59
2023/09/02 00:52:15;;;;;;;3.28;2.17;;;;;;;;;;5053913;28;20021;-59
2023/09/02 00:54:41;;;;;;;2.95;1.88;;;;;;;;;;5053328;28;20094;-59
2023/09/02 00:57:07;;;;;;;3.45;2.08;;;;;;;;;;5053623;28;20467;-59
2023/09/02 00:59:33;;;;;;;3.53;2.13;;;;;;;;;;5053909;28;20120;-60
2023/09/02 01:02:01;;;;;;;3.05;2.40;;;;;;;;;;5053860;28;20025;-59
2023/09/02 01:04:27;;;;;;;4.57;2.28;;;;;;;;;;5053790;28;20071;-59
2023/09/02 01:06:55;;;;;;;3.85;1.88;;;;;;;;;;5053269;28;20061;-59
2023/09/02 01:09:21;;;;;;;2.72;1.80;;;;;;;;;;5053258;28;20036;-59
2023/09/02 01:11:47;;;;;;;3.60;1.98;;;;;;;;;;5052956;28;20130;-59
2023/09/02 01:14:14;;;;;;;3.20;1.98;;;;;;;;;;5053184;28;20455;-59
2023/09/02 01:16:40;;;;;;;2.83;1.90;;;;;;;;;;5055640;28;20082;-59
2023/09/02 01:19:08;;;;;;;3.22;2.08;;;;;;;;;;5057737;28;20029;-59
2023/09/02 01:21:52;;;;;;;3.15;2.35;;;;;;;;;;5057597;28;20022;-59
2023/09/02 01:24:37;;;;;;;2.50;1.90;;;;;;;;;;5057013;28;20375;-59
2023/09/02 01:27:13;;;;;;;3.72;2.38;;;;;;;;;;5056939;28;20040;-59
2023/09/02 01:29:43;;;;;;;2.80;2.10;;;;;;;;;;5057217;28;20060;-59
2023/09/02 01:32:10;;;;;;;2.70;2.00;;;;;;;;;;5057661;28;20021;-59
2023/09/02 01:34:36;;;;;;;4.00;2.70;;;;;;;;;;5057124;28;20056;-59
2023/09/02 01:37:06;;;;;;;3.88;1.90;;;;;;;;;;5057419;28;20124;-58
2023/09/02 01:39:33;;;;;;;7.00;2.33;;;;;;;;;;5056746;28;20039;-59
2023/09/02 01:42:00;;;;;;;5.78;2.20;;;;;;;;;;5057192;28;20110;-58
2023/09/02 01:44:27;;;;;;;3.22;2.00;;;;;;;;;;5056663;28;20535;-59
2023/09/02 01:46:53;;;;;;;2.85;2.10;;;;;;;;;;5056897;28;20064;-59
2023/09/02 01:49:19;;;;;;;3.47;2.33;;;;;;;;;;5056856;28;20056;-58
2023/09/02 01:51:45;;;;;;;4.13;2.90;;;;;;;;;;5057094;28;20117;-59
2023/09/02 01:54:11;;;;;;;3.35;2.33;;;;;;;;;;5056752;28;20052;-58
2023/09/02 01:56:38;;;;;;;2.70;2.00;;;;;;;;;;5056065;28;20047;-59
2023/09/02 01:59:03;;;;;;;2.70;1.80;;;;;;;;;;5056240;28;20025;-59
2023/09/02 02:01:29;;;;;;;4.00;2.53;;;;;;;;;;5056075;28;20090;-59
2023/09/02 02:04:04;;;;;;;2.53;1.75;;;;;;;;;;5056097;28;20021;-58
2023/09/02 02:06:31;;;;;;;2.80;2.05;;;;;;;;;;5056807;28;20056;-59
2023/09/02 02:09:05;;;;;;;2.45;1.73;;;;;;;;;;5056558;28;20037;-59
2023/09/02 02:11:33;;;;;;;3.50;2.10;;;;;;;;;;5056264;28;20031;-58
2023/09/02 02:14:02;;;;;;;2.50;1.88;;;;;;;;;;5055907;28;20077;-59
2023/09/02 02:16:29;;;;;;;2.83;2.00;;;;;;;;;;5055794;28;20032;-59
2023/09/02 02:18:55;;;;;;;3.30;2.30;;;;;;;;;;5055967;28;20021;-59
2023/09/02 02:21:21;;;;;;;2.78;2.30;;;;;;;;;;5055754;28;20029;-59
2023/09/02 02:23:47;;;;;;;3.63;2.33;;;;;;;;;;5055919;28;20028;-59
2023/09/02 02:26:15;;;;;;;2.88;1.85;;;;;;;;;;5056117;28;20031;-58
2023/09/02 02:28:41;;;;;;;2.45;1.45;;;;;;;;;;5055999;28;20029;-58
2023/09/02 02:31:07;;;;;;;3.30;2.03;;;;;;;;;;5056054;28;20451;-59
2023/09/02 02:33:33;;;;;;;3.67;2.25;;;;;;;;;;5056247;28;20017;-58
2023/09/02 02:36:00;;;;;;;3.90;2.60;;;;;;;;;;5063271;28;20114;-59
2023/09/02 02:38:26;;;;;;;4.03;2.05;;;;;;;;;;5054221;28;20140;-58
2023/09/02 02:40:51;;;;;;;3.28;2.05;;;;;;;;;;5056230;28;20447;-59
2023/09/02 02:43:24;;;;;;;2.25;1.60;;;;;;;;;;5055595;28;20451;-59
2023/09/02 02:45:50;;;;;;;2.83;2.08;;;;;;;;;;5055624;28;20033;-59
2023/09/02 02:48:15;;;;;;;4.22;2.10;;;;;;;;;;5055972;28;20447;-59
2023/09/02 02:50:42;;;;;;;2.75;1.95;;;;;;;;;;5056038;28;20033;-59
2023/09/02 02:53:08;;;;;;;2.95;2.03;;;;;;;;;;5055692;28;20077;-59
2023/09/02 02:55:34;;;;;;;2.35;1.45;;;;;;;;;;5055291;28;20025;-59
2023/09/02 02:58:00;;;;;;;3.25;1.63;;;;;;;;;;5055291;28;20032;-58
2023/09/02 03:00:26;;;;;;;2.45;1.88;;;;;;;;;;5055847;28;20029;-58
2023/09/02 03:02:52;;;;;;;3.42;2.08;;;;;;;;;;5055159;28;20467;-58
2023/09/02 03:05:21;;;;;;;2.25;1.38;;;;;;;;;;5055110;28;20025;-59
2023/09/02 03:07:48;;;;;;;2.70;1.85;;;;;;;;;;5055471;28;20040;-59
2023/09/02 03:10:14;;;;;;;2.88;1.77;;;;;;;;;;5055827;28;20048;-59
2023/09/02 03:12:40;;;;;;;3.38;2.08;;;;;;;;;;5055575;28;20025;-59
2023/09/02 03:15:06;;;;;;;2.58;1.83;;;;;;;;;;5054985;28;20028;-59
2023/09/02 03:17:32;;;;;;;2.90;1.73;;;;;;;;;;5054639;28;20089;-59
2023/09/02 03:19:58;;;;;;;3.22;1.92;;;;;;;;;;5055398;28;20052;-59
2023/09/02 03:22:24;;;;;;;3.05;2.38;;;;;;;;;;5054747;28;20104;-59
2023/09/02 03:24:56;;;;;;;6.30;1.90;;;;;;;;;;5055269;28;20066;-59
2023/09/02 03:27:22;;;;;;;2.20;1.50;;;;;;;;;;5054667;28;20021;-61
2023/09/02 03:29:48;;;;;;;5.13;2.03;;;;;;;;;;5054967;28;20116;-59
2023/09/02 03:32:14;;;;;;;4.03;2.03;;;;;;;;;;5054666;28;20021;-59
2023/09/02 03:34:40;;;;;;;2.67;1.58;;;;;;;;;;5054295;28;20021;-59
2023/09/02 03:37:06;;;;;;;2.53;1.60;;;;;;;;;;5054417;28;20129;-59
2023/09/02 03:39:33;;;;;;;2.53;1.60;;;;;;;;;;5053338;28;20510;-59
2023/09/02 03:41:59;;;;;;;5.43;1.90;;;;;;;;;;5054621;28;20112;-59
2023/09/02 03:44:25;;;;;;;3.35;2.13;;;;;;;;;;5054386;28;20017;-59
2023/09/02 03:46:51;;;;;;;4.20;1.92;;;;;;;;;;5054794;28;20398;-59
2023/09/02 03:49:17;;;;;;;3.97;1.85;;;;;;;;;;5054946;28;20041;-59
2023/09/02 03:51:43;;;;;;;2.42;1.30;;;;;;;;;;5054743;28;20444;-59
2023/09/02 03:54:09;;;;;;;3.28;1.90;;;;;;;;;;5054252;28;20032;-59
2023/09/02 03:56:38;;;;;;;2.33;1.30;;;;;;;;;;5054253;28;20032;-59
2023/09/02 03:59:05;;;;;;;3.90;1.70;;;;;;;;;;5054374;28;20040;-59
2023/09/02 04:01:31;;;;;;;2.50;1.40;;;;;;;;;;5054084;28;20079;-59
2023/09/02 04:03:57;;;;;;;2.83;1.42;;;;;;;;;;5054031;28;20036;-59
2023/09/02 04:06:23;;;;;;;2.55;1.30;;;;;;;;;;5053626;28;20021;-59
2023/09/02 04:08:49;;;;;;;2.53;1.55;;;;;;;;;;5054238;28;20081;-59
2023/09/02 04:11:16;;;;;;;2.08;1.05;;;;;;;;;;5054202;28;20029;-59
2023/09/02 04:13:42;;;;;;;2.45;1.52;;;;;;;;;;5053850;28;20537;-59
2023/09/02 04:16:10;;;;;;;2.97;1.80;;;;;;;;;;5054313;28;20028;-59
2023/09/02 04:18:36;;;;;;;3.58;1.92;;;;;;;;;;5054375;28;20036;-59
2023/09/02 04:21:03;;;;;;;2.83;1.58;;;;;;;;;;5054195;28;20036;-59
2023/09/02 04:23:29;;;;;;;2.33;1.40;;;;;;;;;;5054310;28;20021;-59
2023/09/02 04:25:56;;;;;;;2.30;1.23;;;;;;;;;;5053931;28;20517;-59
2023/09/02 04:28:22;;;;;;;2.90;1.83;;;;;;;;;;5053969;28;20024;-59
2023/09/02 04:30:48;;;;;;;7.57;2.05;;;;;;;;;;5053895;28;20013;-59
2023/09/02 04:33:15;;;;;;;3.22;1.73;;;;;;;;;;5053278;28;20481;-59
2023/09/02 04:35:42;;;;;;;3.95;2.33;;;;;;;;;;5053566;28;20359;-59
2023/09/02 04:38:08;;;;;;;3.10;1.40;;;;;;;;;;5054292;28;20041;-59
2023/09/02 04:40:37;;;;;;;2.63;1.55;;;;;;;;;;5054101;28;20025;-59
2023/09/02 04:43:04;;;;;;;2.30;1.70;;;;;;;;;;5053336;28;20107;-59
2023/09/02 04:45:33;;;;;;;3.42;1.90;;;;;;;;;;5053497;28;20048;-59
2023/09/02 04:47:59;;;;;;;2.17;1.48;;;;;;;;;;5053691;28;20524;-59
2023/09/02 04:50:25;;;;;;;2.33;1.75;;;;;;;;;;5055280;28;20033;-59
2023/09/02 04:52:51;;;;;;;2.95;1.58;;;;;;;;;;5060398;28;20474;-59
2023/09/02 04:55:19;;;;;;;3.65;1.85;;;;;;;;;;5060082;28;20025;-59
2023/09/02 04:57:45;;;;;;;3.55;1.85;;;;;;;;;;5059653;28;20490;-59
2023/09/02 05:00:12;;;;;;;4.15;1.73;;;;;;;;;;5059441;28;20025;-59
2023/09/02 05:02:38;;;;;;;2.25;1.48;;;;;;;;;;5060299;28;20039;-60
2023/09/02 05:05:04;;;;;;;2.33;1.45;;;;;;;;;;5060016;28;20017;-59
2023/09/02 05:07:30;;;;;;;2.47;1.42;;;;;;;;;;5060074;28;20029;-59
2023/09/02 05:09:56;;;;;;;1.90;1.20;;;;;;;;;;5059987;28;20028;-59
2023/09/02 05:12:22;;;;;;;4.45;2.30;;;;;;;;;;5060013;28;20017;-59
2023/09/02 05:14:48;;;;;;;3.65;2.35;;;;;;;;;;5059959;28;20431;-59
2023/09/02 05:17:14;;;;;;;3.90;2.30;;;;;;;;;;5060455;28;20025;-59
2023/09/02 05:19:39;;;;;;;5.53;2.28;;;;;;;;;;5060493;28;20079;-59
2023/09/02 05:22:05;;;;;;;2.88;2.10;;;;;;;;;;5059877;28;20051;-59
2023/09/02 05:24:32;;;;;;;2.85;2.15;;;;;;;;;;5060187;28;20025;-59
2023/09/02 05:26:58;;;;;;;6.78;2.55;;;;;;;;;;5059759;28;20025;-60
2023/09/02 05:29:24;;;;;;;3.53;2.28;;;;;;;;;;5060246;28;20033;-59
2023/09/02 05:31:49;;;;;;;2.50;1.98;;;;;;;;;;5060157;28;20028;-59
2023/09/02 05:34:15;;;;;;;3.25;2.25;;;;;;;;;;5059586;28;20021;-59
2023/09/02 05:36:41;;;;;;;4.53;2.33;;;;;;;;;;5059423;28;20491;-59
2023/09/02 05:39:07;;;;;;;3.45;2.15;;;;;;;;;;5060171;28;20147;-59
2023/09/02 05:41:33;;;;;;;7.05;2.85;;;;;;;;;;5059703;28;20032;-59
2023/09/02 05:44:00;;;;;;;4.00;2.83;;;;;;;;;;5060174;28;20021;-59
2023/09/02 05:46:26;;;;;;;4.57;2.60;;;;;;;;;;5059589;28;20037;-59
2023/09/02 05:48:52;;;;;;;2.72;1.80;;;;;;;;;;5060312;28;20029;-59
2023/09/02 05:51:18;;;;;;;2.47;1.73;;;;;;;;;;5060210;28;20116;-59
2023/09/02 05:53:45;;;;;;;2.65;1.85;;;;;;;;;;5059951;28;20520;-59
2023/09/02 05:56:11;;;;;;;4.95;2.33;;;;;;;;;;5060412;28;20450;-59
2023/09/02 05:58:37;;;;;;;3.25;2.20;;;;;;;;;;5059332;28;20024;-59
2023/09/02 06:01:04;;;;;;;4.55;2.05;;;;;;;;;;5059612;28;20017;-59
2023/09/02 06:03:30;;;;;;;3.33;1.90;;;;;;;;;;5054617;28;20037;-59
2023/09/02 06:05:57;;;;;;;3.53;2.53;;;;;;;;;;5056667;28;20176;-59
2023/09/02 06:08:23;;;;;;;3.35;1.85;;;;;;;;;;5056308;28;20032;-59
2023/09/02 06:10:56;;;;;;;3.15;2.15;;;;;;;;;;5056902;28;20354;-59
2023/09/02 06:13:22;;;;;;;5.60;2.58;;;;;;;;;;5056266;28;20035;-59
2023/09/02 06:15:48;;;;;;;4.85;2.92;;;;;;;;;;5055933;28;20095;-59
2023/09/02 06:18:14;;;;;;;4.18;2.47;;;;;;;;;;5056465;28;20029;-59
2023/09/02 06:20:40;;;;;;;3.85;2.65;;;;;;;;;;5056749;28;20025;-59
2023/09/02 06:23:05;;;;;;;6.85;3.10;;;;;;;;;;5056286;28;20100;-59
2023/09/02 06:25:31;;;;;;;3.13;2.38;;;;;;;;;;5056021;28;20025;-59
2023/09/02 06:27:57;;;;;;;3.50;2.70;;;;;;;;;;5055871;28;20470;-59
2023/09/02 06:30:23;;;;;;;2.55;2.00;;;;;;;;;;5056667;28;20029;-59
2023/09/02 06:32:49;;;;;;;3.97;2.63;;;;;;;;;;5055840;28;20017;-59
2023/09/02 06:35:15;;;;;;;3.75;2.33;;;;;;;;;;5056147;28;20029;-59
2023/09/02 06:37:44;;;;;;;3.30;2.00;;;;;;;;;;5055732;28;20115;-59
2023/09/02 06:40:10;;;;;;;4.07;2.22;;;;;;;;;;5055715;28;20017;-59
2023/09/02 06:42:36;;;;;;;5.40;2.20;;;;;;;;;;5055530;28;20025;-59
2023/09/02 06:45:02;;;;;;;3.10;1.90;;;;;;;;;;5056143;28;20075;-59
2023/09/02 06:47:28;;;;;;;3.47;2.20;;;;;;;;;;5055509;28;20025;-59
2023/09/02 06:49:54;;;;;;;3.88;2.13;;;;;;;;;;5055940;28;20032;-59
2023/09/02 06:52:20;;;;;;;5.53;2.20;;;;;;;;;;5055511;28;20070;-59
2023/09/02 06:54:49;;;;;;;2.95;2.33;;;;;;;;;;5055185;28;20036;-59
2023/09/02 06:57:15;;;;;;;3.13;1.77;;;;;;;;;;5055151;28;20364;-59
2023/09/02 06:59:41;;;;;;;3.65;2.50;;;;;;;;;;5055639;28;20511;-59
2023/09/02 07:02:07;;;;;;;3.78;2.10;;;;;;;;;;5054917;28;20067;-59
2023/09/02 07:04:33;;;;;;;3.58;2.65;;;;;;;;;;5055686;28;20021;-60
2023/09/02 07:06:59;;;;;;;3.78;2.67;;;;;;;;;;5054962;28;20032;-60
2023/09/02 07:09:24;;;;;;;3.67;2.60;;;;;;;;;;5055685;28;20111;-60
2023/09/02 07:11:52;;;;;;;3.50;2.65;;;;;;;;;;5055579;28;20032;-60
2023/09/02 07:14:18;;;;;;;3.88;2.38;;;;;;;;;;5055434;28;20383;-60
2023/09/02 07:16:44;;;;;;;3.45;2.13;;;;;;;;;;5055528;28;20033;-60
2023/09/02 07:19:10;;;;;;;2.80;1.73;;;;;;;;;;5055196;28;20029;-60
2023/09/02 07:21:36;;;;;;;3.20;2.05;;;;;;;;;;5054934;28;20206;-60
2023/09/02 07:24:02;;;;;;;2.75;1.90;;;;;;;;;;5055323;28;20021;-60
2023/09/02 07:26:32;;;;;;;2.83;1.80;;;;;;;;;;5054712;28;20029;-60
2023/09/02 07:28:57;;;;;;;3.53;1.83;;;;;;;;;;5055315;28;20029;-60
2023/09/02 07:31:24;;;;;;;3.38;2.38;;;;;;;;;;5054794;28;20025;-60
2023/09/02 07:33:50;;;;;;;4.40;2.10;;;;;;;;;;5054644;28;20021;-60
2023/09/02 07:36:16;;;;;;;2.40;1.58;;;;;;;;;;5055244;28;20036;-60
2023/09/02 07:38:46;;;;;;;2.00;1.40;;;;;;;;;;5054596;28;20017;-60
2023/09/02 07:41:12;;;;;;;3.17;1.90;;;;;;;;;;5054651;28;20055;-60
2023/09/02 07:43:38;;;;;;;2.85;1.73;;;;;;;;;;5054621;28;20104;-60
2023/09/02 07:46:04;;;;;;;2.30;1.70;;;;;;;;;;5054339;28;20120;-59
2023/09/02 07:48:30;;;;;;;2.72;1.80;;;;;;;;;;5054897;28;20079;-59
2023/09/02 07:50:56;;;;;;;4.57;1.70;;;;;;;;;;5054930;28;20021;-59
2023/09/02 07:53:22;;;;;;;5.35;1.95;;;;;;;;;;5054780;28;20025;-59
2023/09/02 07:55:48;;;;;;;3.25;1.92;;;;;;;;;;5054023;28;20371;-60
2023/09/02 07:58:14;;;;;;;5.90;1.70;;;;;;;;;;5054761;28;20055;-60
2023/09/02 08:00:40;;;;;;;3.20;1.63;;;;;;;;;;5054980;28;20029;-60
2023/09/02 08:03:06;;;;;;;4.05;2.33;;;;;;;;;;5054689;28;20025;-60
2023/09/02 08:05:32;;;;;;;2.72;1.48;;;;;;;;;;5054020;28;20036;-60
2023/09/02 08:07:58;;;;;;;2.97;1.80;;;;;;;;;;5053743;28;20370;-60
2023/09/02 08:10:24;;;;;;;2.42;1.83;;;;;;;;;;5054149;28;20036;-60
2023/09/02 08:12:50;;;;;;;2.25;1.42;;;;;;;;;;5053886;28;20028;-60
2023/09/02 08:15:16;;;;;;;3.63;1.92;;;;;;;;;;5053966;28;20025;-60
2023/09/02 08:17:42;;;;;;;3.88;2.08;;;;;;;;;;5053782;28;20115;-60
2023/09/02 08:20:09;;;;;;;2.47;1.52;;;;;;;;;;5054239;28;20033;-60
2023/09/02 08:22:39;;;;;;;2.70;1.83;;;;;;;;;;5054138;28;20016;-60
2023/09/02 08:25:06;;;;;;;3.25;1.80;;;;;;;;;;5054150;28;20052;-60
2023/09/02 08:27:32;;;;;;;2.58;1.50;;;;;;;;;;5054440;28;20394;-60
2023/09/02 08:29:58;;;;;;;2.80;1.80;;;;;;;;;;5053706;28;20075;-60
2023/09/02 08:32:24;;;;;;;3.17;1.60;;;;;;;;;;5053726;28;20029;-60
2023/09/02 08:34:49;;;;;;;2.80;1.58;;;;;;;;;;5053661;28;20025;-60
2023/09/02 08:37:15;;;;;;;2.40;1.48;;;;;;;;;;5053422;28;20048;-60
2023/09/02 08:39:41;;;;;;;2.05;1.00;;;;;;;;;;5054132;28;20024;-60
2023/09/02 08:42:08;;;;;;;2.58;1.27;;;;;;;;;;5053636;28;20359;-60
2023/09/02 08:44:37;;;;;;;4.63;1.30;;;;;;;;;;5053501;28;20025;-60
2023/09/02 08:47:03;;;;;;;3.08;1.58;;;;;;;;;;5053477;28;20029;-60
2023/09/02 08:49:30;;;;;;;2.10;1.10;;;;;;;;;;5054295;28;20044;-60
2023/09/02 08:51:56;;;;;;;1.83;1.17;;;;;;;;;;5053532;28;20056;-60
2023/09/02 08:54:22;;;;;;;2.40;1.73;;;;;;;;;;5054235;28;20024;-60
2023/09/02 08:56:52;;;;;;;1.75;1.05;;;;;;;;;;5053418;28;20486;-60
2023/09/02 08:59:18;;;;;;;2.45;1.95;;;;;;;;;;5053731;28;20035;-60
2023/09/02 09:01:45;;;;;;;2.70;1.42;;;;;;;;;;5053718;28;20036;-60
2023/09/02 09:04:13;;;;;;;2.15;1.25;;;;;;;;;;5053345;28;20111;-60
2023/09/02 09:06:40;;;;;;;2.60;1.52;;;;;;;;;;5053240;28;20119;-60
2023/09/02 09:09:08;;;;;;;2.75;1.58;;;;;;;;;;5053741;28;20371;-60
2023/09/02 09:11:35;;;;;;;2.38;1.20;;;;;;;;;;5053265;28;20494;-58
2023/09/02 09:14:02;;;;;;;3.35;1.70;;;;;;;;;;5053602;28;20022;-58
2023/09/02 09:16:33;;;;;;;3.03;1.55;;;;;;;;;;5053717;28;20025;-58
2023/09/02 09:18:59;;;;;;;2.35;1.27;;;;;;;;;;5053823;28;20028;-58
2023/09/02 09:21:25;;;;;;;2.78;1.33;;;;;;;;;;5053252;28;20029;-58
2023/09/02 09:23:51;;;;;;;1.90;1.10;;;;;;;;;;5053157;28;20033;-58
2023/09/02 09:26:18;;;;;;;2.67;1.48;;;;;;;;;;5053167;28;20035;-58
2023/09/02 09:28:57;;;;;;;2.95;1.30;;;;;;;;;;5053639;28;20029;-58
2023/09/02 09:31:23;;;;;;;2.38;1.33;;;;;;;;;;5053513;28;20480;-58
2023/09/02 09:34:00;;;;;;;2.33;0.93;;;;;;;;;;5053109;28;20497;-58
2023/09/02 09:36:26;;;;;;;1.83;1.13;;;;;;;;;;5053657;28;20206;-58
2023/09/02 09:38:53;;;;;;;2.85;1.65;;;;;;;;;;5056345;28;20021;-58
2023/09/02 09:41:19;;;;;;;2.97;1.20;;;;;;;;;;5056878;28;20028;-59
2023/09/02 09:44:02;;;;;;;2.30;1.33;;;;;;;;;;5056740;28;20053;-59
2023/09/02 09:46:28;;;;;;;2.58;1.02;;;;;;;;;;5056995;28;20024;-59
2023/09/02 09:49:00;;;;;;;2.40;1.13;;;;;;;;;;5057298;28;20029;-59
2023/09/02 09:51:27;;;;;;;1.95;1.20;;;;;;;;;;5056696;28;20029;-59
2023/09/02 09:53:53;;;;;;;2.10;1.15;;;;;;;;;;5057115;28;20328;-59
2023/09/02 09:56:19;;;;;;;2.00;1.00;;;;;;;;;;5057368;28;20040;-59
2023/09/02 09:58:46;;;;;;;1.52;0.88;;;;;;;;;;5056845;28;20031;-59
2023/09/02 10:01:20;;;;;;;2.80;1.00;;;;;;;;;;5057015;28;20052;-59
2023/09/02 10:03:46;;;;;;;2.45;1.25;;;;;;;;;;5056757;28;20039;-59
2023/09/02 10:06:11;;;;;;;4.60;1.35;;;;;;;;;;5056909;28;20100;-59
2023/09/02 10:08:50;;;;;;;1.77;1.17;;;;;;;;;;5057161;28;20025;-59
2023/09/02 10:11:21;;;;;;;1.77;0.95;;;;;;;;;;5056846;28;20029;-59
2023/09/02 10:13:47;;;;;;;1.65;0.90;;;;;;;;;;5056190;28;20025;-59
2023/09/02 10:16:15;;;;;;;2.05;1.17;;;;;;;;;;5056049;28;20021;-60
2023/09/02 10:18:42;;;;;;;1.92;0.90;;;;;;;;;;5056147;28;20127;-59
2023/09/02 10:21:08;;;;;;;1.80;1.00;;;;;;;;;;5056442;28;20087;-59
2023/09/02 10:23:34;;;;;;;2.88;1.08;;;;;;;;;;5056563;28;20108;-59
2023/09/02 10:26:06;;;;;;;1.45;0.77;;;;;;;;;;5055584;28;20025;-60
2023/09/02 10:28:39;;;;;;;3.92;1.13;;;;;;;;;;5055913;28;20025;-59
2023/09/02 10:31:17;;;;;;;2.83;1.23;;;;;;;;;;5056176;28;20021;-60
2023/09/02 10:33:45;;;;;;;2.03;0.90;;;;;;;;;;5056678;28;20029;-59
2023/09/02 10:36:14;;;;;;;3.83;0.90;;;;;;;;;;5055780;28;20021;-59
2023/09/02 10:38:44;;;;;;;2.00;1.10;;;;;;;;;;5056018;28;20136;-60
2023/09/02 10:41:12;;;;;;;2.38;1.20;;;;;;;;;;5055791;28;20029;-59
2023/09/02 10:43:39;;;;;;;2.85;0.98;;;;;;;;;;5055529;28;20032;-59
2023/09/02 10:46:05;;;;;;;1.58;0.90;;;;;;;;;;5055832;28;20159;-59
2023/09/02 10:48:33;;;;;;;2.78;1.45;;;;;;;;;;5055355;28;20108;-59
2023/09/02 10:51:00;;;;;;;2.15;1.08;;;;;;;;;;5056379;28;20360;-59
2023/09/02 10:53:44;;;;;;;1.70;0.98;;;;;;;;;;5056079;28;20025;-60
2023/09/02 10:56:10;;;;;;;1.25;0.70;;;;;;;;;;5055746;28;20036;-59
2023/09/02 10:58:46;;;;;;;1.88;0.95;;;;;;;;;;5055720;28;20029;-59
2023/09/02 11:01:12;;;;;;;1.42;0.68;;;;;;;;;;5055941;28;20041;-60
2023/09/02 11:03:46;;;;;;;1.60;0.85;;;;;;;;;;5055250;28;20091;-59
2023/09/02 11:06:15;;;;;;;1.65;0.77;;;;;;;;;;5055219;28;20025;-59
2023/09/02 11:08:48;;;;;;;1.40;0.68;;;;;;;;;;5055779;28;20366;-60
2023/09/02 11:11:15;;;;;;;1.90;0.75;;;;;;;;;;5055505;28;20033;-59
2023/09/02 11:13:59;;;;;;;1.90;1.00;;;;;;;;;;5055583;28;20052;-60
2023/09/02 11:16:25;;;;;;;1.98;1.00;;;;;;;;;;5055131;28;20033;-59
2023/09/02 11:18:52;;;;;;;1.42;0.93;;;;;;;;;;5055048;28;20029;-59
2023/09/02 11:21:38;;;;;;;2.35;0.95;;;;;;;;;;5054938;28;20032;-59
2023/09/02 11:24:13;;;;;;;2.42;1.33;;;;;;;;;;5054846;28;20036;-60
2023/09/02 11:26:54;;;;;;;2.00;0.82;;;;;;;;;;5054872;28;20021;-59
2023/09/02 11:29:24;;;;;;;2.20;1.00;;;;;;;;;;5054903;28;20037;-59
2023/09/02 11:31:56;;;;;;;1.63;0.75;;;;;;;;;;5054761;28;20466;-59
2023/09/02 11:34:23;;;;;;;2.90;1.15;;;;;;;;;;5054993;28;20083;-60
2023/09/02 11:36:51;;;;;;;1.75;0.90;;;;;;;;;;5054419;28;20052;-59
2023/09/02 11:39:17;;;;;;;1.33;0.70;;;;;;;;;;5054838;28;20428;-59
2023/09/02 11:41:43;;;;;;;2.78;1.20;;;;;;;;;;5054527;28;20060;-59
2023/09/02 11:44:10;;;;;;;2.67;1.20;;;;;;;;;;5053216;28;20056;-60
2023/09/02 11:46:39;;;;;;;1.30;0.77;;;;;;;;;;5054388;28;20075;-60
2023/09/02 11:49:12;;;;;;;2.05;1.15;;;;;;;;;;5055012;28;20025;-60
2023/09/02 11:51:38;;;;;;;2.47;1.00;;;;;;;;;;5054666;28;20052;-60
2023/09/02 11:54:04;;;;;;;2.70;1.05;;;;;;;;;;5054006;28;20017;-59
2023/09/02 11:56:30;;;;;;;2.33;1.00;;;;;;;;;;5054320;28;20104;-60
2023/09/02 11:58:56;;;;;;;1.73;0.85;;;;;;;;;;5054510;28;20064;-60
2023/09/02 12:01:22;;;;;;;1.65;0.88;;;;;;;;;;5053690;28;20103;-60
2023/09/02 12:03:47;;;;;;;2.10;1.00;;;;;;;;;;5054394;28;20025;-60
2023/09/02 12:06:13;;;;;;;1.67;0.57;;;;;;;;;;5054082;28;20108;-60
2023/09/02 12:08:39;;;;;;;1.25;0.50;;;;;;;;;;5053828;28;20021;-60
2023/09/02 12:11:05;;;;;;;2.42;1.00;;;;;;;;;;5054769;28;20451;-60
2023/09/02 12:13:32;;;;;;;1.73;1.00;;;;;;;;;;5054208;28;20104;-60
2023/09/02 12:15:57;;;;;;;1.95;0.80;;;;;;;;;;5054002;28;20074;-59
2023/09/02 12:18:24;;;;;;;1.65;0.82;;;;;;;;;;5053847;28;20031;-60
2023/09/02 12:20:51;;;;;;;1.60;0.82;;;;;;;;;;5054045;28;20470;-59
2023/09/02 12:23:17;;;;;;;1.83;0.80;;;;;;;;;;5054037;28;20025;-60
2023/09/02 12:26:00;;;;;;;1.80;1.00;;;;;;;;;;5054065;28;20033;-60
2023/09/02 12:28:29;;;;;;;2.42;1.00;;;;;;;;;;5054227;28;20036;-60
2023/09/02 12:30:56;;;;;;;1.80;0.90;;;;;;;;;;5054534;28;20075;-60
2023/09/02 12:33:21;;;;;;;2.85;1.48;;;;;;;;;;5053665;28;20021;-59
2023/09/02 12:35:49;;;;;;;1.02;0.57;;;;;;;;;;5053513;28;20470;-60
2023/09/02 12:38:15;;;;;;;1.45;0.80;;;;;;;;;;5054062;28;20475;-60
2023/09/02 12:40:51;;;;;;;2.33;1.13;;;;;;;;;;5054180;28;20087;-60
2023/09/02 12:43:23;;;;;;;1.85;0.80;;;;;;;;;;5053709;28;20017;-60
2023/09/02 12:45:49;;;;;;;1.58;0.82;;;;;;;;;;5054326;28;20083;-60
2023/09/02 12:48:15;;;;;;;1.63;0.90;;;;;;;;;;5053919;28;20029;-60
2023/09/02 12:50:41;;;;;;;4.30;1.42;;;;;;;;;;5054045;28;20033;-60
2023/09/02 12:53:06;;;;;;;2.50;1.20;;;;;;;;;;5053472;28;20531;-60
2023/09/02 12:55:32;;;;;;;1.60;1.02;;;;;;;;;;5053150;28;20348;-60
2023/09/02 12:57:58;;;;;;;4.30;0.98;;;;;;;;;;5053443;28;20028;-59
2023/09/02 13:00:25;;;;;;;1.92;0.95;;;;;;;;;;5053915;28;20140;-60
2023/09/02 13:02:54;;;;;;;1.67;1.00;;;;;;;;;;5053577;28;20022;-60
2023/09/02 13:05:20;;;;;;;2.95;1.25;;;;;;;;;;5053561;28;20028;-60
2023/09/02 13:07:46;;;;;;;2.20;0.98;;;;;;;;;;5053288;28;20033;-60
2023/09/02 13:10:13;;;;;;;2.08;1.17;;;;;;;;;;5053581;28;20029;-60
2023/09/02 13:12:39;;;;;;;1.98;1.25;;;;;;;;;;5055563;28;20482;-60
2023/09/02 13:15:06;;;;;;;2.05;1.10;;;;;;;;;;5057400;28;20024;-60
2023/09/02 13:17:32;;;;;;;2.25;1.17;;;;;;;;;;5057349;28;20033;-60
2023/09/02 13:19:58;;;;;;;1.92;0.95;;;;;;;;;;5057273;28;20017;-60
2023/09/02 13:22:24;;;;;;;3.42;1.48;;;;;;;;;;5057552;28;20031;-60
2023/09/02 13:24:51;;;;;;;1.90;0.98;;;;;;;;;;5057102;28;20051;-60
2023/09/02 13:27:17;;;;;;;2.03;1.20;;;;;;;;;;5057009;28;20033;-60
2023/09/02 13:29:47;;;;;;;3.15;1.27;;;;;;;;;;5057423;28;20063;-60
2023/09/02 13:32:22;;;;;;;1.50;1.02;;;;;;;;;;5057058;28;20056;-60
2023/09/02 13:34:48;;;;;;;2.28;1.33;;;;;;;;;;5057467;28;20025;-59
2023/09/02 13:37:20;;;;;;;1.45;0.68;;;;;;;;;;5057111;28;20117;-60
2023/09/02 13:39:47;;;;;;;2.03;1.13;;;;;;;;;;5057199;28;20075;-60
2023/09/02 13:42:17;;;;;;;2.00;1.10;;;;;;;;;;5057363;28;20033;-60
2023/09/02 13:44:43;;;;;;;2.50;1.30;;;;;;;;;;5057260;28;20363;-60
2023/09/02 13:47:09;;;;;;;1.65;0.90;;;;;;;;;;5056605;28;20021;-60
2023/09/02 13:49:35;;;;;;;2.30;1.27;;;;;;;;;;5056661;28;20025;-60
2023/09/02 13:52:02;;;;;;;1.90;1.05;;;;;;;;;;5056931;28;20025;-60
2023/09/02 13:54:28;;;;;;;2.63;1.17;;;;;;;;;;5056580;28;20055;-60
2023/09/02 13:56:54;;;;;;;2.45;1.40;;;;;;;;;;5056534;28;20033;-60
2023/09/02 13:59:23;;;;;;;2.15;1.00;;;;;;;;;;5057028;28;20402;-60
2023/09/02 14:01:49;;;;;;;1.65;0.75;;;;;;;;;;5056968;28;20021;-60
2023/09/02 14:04:16;;;;;;;1.30;0.68;;;;;;;;;;5056654;28;20520;-60
2023/09/02 14:06:42;;;;;;;2.53;1.17;;;;;;;;;;5056295;28;20025;-60
2023/09/02 14:09:16;;;;;;;4.88;1.58;;;;;;;;;;5056605;28;20025;-60
2023/09/02 14:11:42;;;;;;;1.95;1.10;;;;;;;;;;5056682;28;20060;-60
2023/09/02 14:14:11;;;;;;;3.10;1.35;;;;;;;;;;5057072;28;20053;-60
2023/09/02 14:16:37;;;;;;;1.75;1.00;;;;;;;;;;5056269;28;20060;-60
2023/09/02 14:19:02;;;;;;;1.85;0.98;;;;;;;;;;5055959;28;20017;-60
2023/09/02 14:21:28;;;;;;;1.80;0.90;;;;;;;;;;5056339;28;20396;-60
2023/09/02 14:23:54;;;;;;;4.38;1.17;;;;;;;;;;5055239;28;20409;-60
2023/09/02 14:26:20;;;;;;;3.85;1.33;;;;;;;;;;5056408;28;20020;-60
2023/09/02 14:28:46;;;;;;;2.40;1.10;;;;;;;;;;5056004;28;20028;-60
2023/09/02 14:31:12;;;;;;;2.25;1.20;;;;;;;;;;5055941;28;20096;-60
2023/09/02 14:33:38;;;;;;;2.50;1.50;;;;;;;;;;5055740;28;20416;-60
2023/09/02 14:36:06;;;;;;;1.88;1.02;;;;;;;;;;5056428;28;20025;-60
2023/09/02 14:38:32;;;;;;;3.90;1.10;;;;;;;;;;5056685;28;20501;-60
2023/09/02 14:40:58;;;;;;;1.80;0.93;;;;;;;;;;5055858;28;20055;-60
2023/09/02 14:43:24;;;;;;;1.67;0.93;;;;;;;;;;5055306;28;20021;-60